createdAt,value
2023-04-12T00:00:57.812Z,100086.57061496335
2023-04-12T00:03:54.526Z,100093.4877191718
2023-04-12T00:06:49.924Z,100080.57228100605
2023-04-12T00:09:45.493Z,100077.39902562655
2023-04-12T00:12:41.056Z,100078.93130686757
2023-04-12T00:15:37.646Z,100086.55263484892
2023-04-12T00:18:33.136Z,100085.42216471968
2023-04-12T00:21:29.727Z,100084.19383776718
2023-04-12T00:24:26.278Z,100083.00742356846
2023-04-12T00:27:21.850Z,100085.61551415139
2023-04-12T00:30:17.434Z,100075.91720586728
2023-04-12T00:33:14.945Z,100071.33324952854
2023-04-12T00:39:17.061Z,100079.17368215113
2023-04-12T00:42:12.630Z,100080.43206189976
2023-04-12T00:45:09.192Z,100077.15243138028
2023-04-12T00:48:07.734Z,100077.67558972338
2023-04-12T00:51:04.308Z,100080.49200159551
2023-04-12T00:54:00.819Z,100081.8481058164
2023-04-12T00:57:00.405Z,100082.3434367037
2023-04-12T00:59:55.964Z,100083.09950063823
2023-04-12T01:06:00.011Z,100086.64092994311
2023-04-12T01:09:03.630Z,100080.38149060596
2023-04-12T01:12:09.149Z,100075.33292881813
2023-04-12T01:15:09.654Z,100070.59611368667
2023-04-12T01:18:13.183Z,100070.51675784717
2023-04-12T01:21:18.775Z,100072.18270820988
2023-04-12T01:24:23.281Z,100080.51190504641
2023-04-12T01:27:29.829Z,100066.91546190224
2023-04-12T01:30:28.370Z,100071.30727926432
2023-04-12T01:33:30.930Z,100060.50219859497
2023-04-12T01:36:27.495Z,100063.43350346785
2023-04-12T01:39:24.022Z,100061.72406392446
2023-04-12T01:42:20.575Z,100064.709444132
2023-04-12T01:45:16.160Z,100063.37941094268
2023-04-12T01:48:11.800Z,100069.42631253027
2023-04-12T01:51:18.263Z,100060.66449174516
2023-04-12T01:54:22.782Z,100062.05435823652
2023-04-12T01:57:23.310Z,100060.33530320761
2023-04-12T02:00:20.894Z,100066.90739034904
2023-04-12T02:03:17.589Z,100065.62866123438
2023-04-12T02:06:14.024Z,100054.27239067617
2023-04-12T02:09:09.590Z,100055.26329605503
2023-04-12T02:12:07.103Z,100067.24160239208
2023-04-12T02:15:03.726Z,100068.90741262604
2023-04-12T02:18:03.345Z,100070.51100636604
2023-04-12T02:21:00.795Z,100065.95707887296
2023-04-12T02:23:56.598Z,100060.8580804699
2023-04-12T02:26:55.933Z,100058.07708501152
2023-04-12T02:29:51.454Z,100059.74596810708
2023-04-12T02:35:52.621Z,100057.96425629636
2023-04-12T02:41:54.646Z,100056.24607194736
2023-04-12T02:44:50.230Z,100059.40804740736
2023-04-12T02:47:45.880Z,100063.39303528913
2023-04-12T02:50:41.310Z,100062.56220475302
2023-04-12T02:53:36.890Z,100056.71733864251
2023-04-12T02:56:35.459Z,100047.53432580085
2023-04-12T02:59:32.042Z,100043.49359544065
2023-04-12T03:02:27.710Z,100031.34681313096
2023-04-12T03:08:28.674Z,100039.2548406356
2023-04-12T03:14:29.783Z,100040.36952243849
2023-04-12T03:17:25.348Z,100034.6022610894
2023-04-12T03:20:23.897Z,100029.7105313743
2023-04-12T03:23:20.483Z,100031.56398920105
2023-04-12T03:26:20.012Z,100026.71915455154
2023-04-12T03:29:17.537Z,100030.3471860972
2023-04-12T03:32:13.076Z,100028.36122079412
2023-04-12T03:38:16.211Z,100045.18150191288
2023-04-12T03:41:11.746Z,100044.16236730473
2023-04-12T03:44:08.278Z,100048.96627544111
2023-04-12T03:47:03.907Z,100051.55262280587
2023-04-12T03:53:01.979Z,100046.88699629306
2023-04-12T03:55:57.540Z,100054.54766635029
2023-04-12T04:01:59.713Z,100054.6764146826
2023-04-12T04:04:55.259Z,100057.36026753292
2023-04-12T04:07:51.783Z,100036.8076294225
2023-04-12T04:10:47.348Z,100046.6066343145
2023-04-12T04:16:49.424Z,100048.41638916494
2023-04-12T04:19:44.975Z,100049.38638473942
2023-04-12T04:22:47.514Z,100056.83737650787
2023-04-12T04:25:47.072Z,100061.17123068639
2023-04-12T04:28:44.631Z,100061.18267916009
2023-04-12T04:31:46.317Z,100067.37706094685
2023-04-12T04:34:43.798Z,100072.84116202906
2023-04-12T04:37:41.299Z,100067.01296039016
2023-04-12T04:40:39.865Z,100066.28109301762
2023-04-12T04:43:39.432Z,100072.13386734625
2023-04-12T04:46:38.070Z,100072.7094911287
2023-04-12T04:49:33.532Z,100072.59476078505
2023-04-12T04:52:29.066Z,100077.46081171288
2023-04-12T04:55:29.665Z,100080.1394776451
2023-04-12T04:58:25.230Z,100074.76762846345
2023-04-12T05:01:25.870Z,100081.14176300835
2023-04-12T05:04:21.347Z,100082.30121986709
2023-04-12T05:07:17.839Z,100088.64328068834
2023-04-12T05:10:13.419Z,100095.01003917356
2023-04-12T05:13:09.997Z,100098.04312211962
2023-04-12T05:16:07.546Z,100089.61108170527
2023-04-12T05:19:03.119Z,100088.52285425823
2023-04-12T05:21:58.671Z,100092.74150397658
2023-04-12T05:24:54.249Z,100089.20102864054
2023-04-12T05:27:52.201Z,100083.98728769248
2023-04-12T05:30:47.402Z,100079.60650409992
2023-04-12T05:33:44.884Z,100079.36340394289
2023-04-12T05:36:40.484Z,100075.97846432588
2023-04-12T05:39:35.983Z,100072.8280208606
2023-04-12T05:45:38.152Z,100080.35897794817
2023-04-12T05:48:33.704Z,100075.37114445386
2023-04-12T05:51:40.419Z,100083.55431443141
2023-04-12T05:54:29.796Z,100075.04958175866
2023-04-12T05:57:26.346Z,100081.81582548305
2023-04-12T06:00:22.942Z,100077.657378688
2023-04-12T06:03:19.567Z,100078.77916807879
2023-04-12T06:06:15.067Z,100081.66287282118
2023-04-12T06:09:10.579Z,100085.32473328858
2023-04-12T06:12:06.180Z,100082.24801265856
2023-04-12T06:15:01.742Z,100089.20090167466
2023-04-12T06:21:02.806Z,100076.79274055327
2023-04-12T06:23:58.356Z,100083.71259032768
2023-04-12T06:26:53.946Z,100079.18755828762
2023-04-12T06:32:55.025Z,100076.82885055967
2023-04-12T06:35:51.594Z,100081.33244427117
2023-04-12T06:38:51.210Z,100084.20697607032
2023-04-12T06:41:47.689Z,100084.90281156499
2023-04-12T06:44:43.220Z,100078.45708566887
2023-04-12T06:47:40.848Z,100086.60357693386
2023-04-12T06:50:39.388Z,100081.49903905878
2023-04-12T06:53:35.895Z,100087.86501869927
2023-04-12T06:56:36.453Z,100073.86749751968
2023-04-12T06:59:32.005Z,100074.876231934
2023-04-12T07:02:27.671Z,100080.19283956583
2023-04-12T07:05:24.299Z,100073.25371722666
2023-04-12T07:08:19.708Z,100071.88031725072
2023-04-12T07:11:21.517Z,100068.86996023227
2023-04-12T07:14:17.033Z,100073.84696181327
2023-04-12T07:17:12.361Z,100077.92838280015
2023-04-12T07:20:09.986Z,100069.80188190918
2023-04-12T07:23:05.490Z,100074.56342200829
2023-04-12T07:29:07.776Z,100080.59765311088
2023-04-12T07:35:08.752Z,100090.14215693674
2023-04-12T07:38:04.245Z,100079.80652810444
2023-04-12T07:40:59.792Z,100081.58963197346
2023-04-12T07:43:56.494Z,100077.4841923598
2023-04-12T07:46:51.947Z,100085.11774314243
2023-04-12T07:49:47.501Z,100089.33472480933
2023-04-12T07:52:43.032Z,100085.4287645657
2023-04-12T07:55:38.614Z,100084.96477272658
2023-04-12T07:58:34.159Z,100094.48285349946
2023-04-12T08:01:30.754Z,100085.88211540843
2023-04-12T08:04:28.524Z,100103.92553997095
2023-04-12T08:07:23.835Z,100084.98786830895
2023-04-12T08:10:19.378Z,100088.88975586511
2023-04-12T08:13:15.981Z,100092.92739600259
2023-04-12T08:16:12.560Z,100097.21030490077
2023-04-12T08:19:08.088Z,100090.72625473556
2023-04-12T08:22:03.673Z,100093.30708232414
2023-04-12T08:24:59.239Z,100099.15682955252
2023-04-12T08:27:54.823Z,100091.68895963019
2023-04-12T08:30:51.399Z,100083.591557291
2023-04-12T08:33:46.888Z,100091.4837353895
2023-04-12T08:36:42.474Z,100092.19041378649
2023-04-12T08:39:38.039Z,100088.143074261
2023-04-12T08:42:37.604Z,100094.3274135543
2023-04-12T08:45:37.158Z,100087.56259822892
2023-04-12T08:48:35.719Z,100083.10152990755
2023-04-12T08:51:32.201Z,100090.19439620059
2023-04-12T08:54:28.772Z,100082.1815127023
2023-04-12T08:57:25.373Z,100082.68713974927
2023-04-12T09:00:21.916Z,100087.66991405429
2023-04-12T09:03:21.954Z,100090.3350326119
2023-04-12T09:06:18.039Z,100086.76436371214
2023-04-12T09:09:28.536Z,100085.28177177653
2023-04-12T09:12:30.110Z,100083.21751646919
2023-04-12T09:15:34.669Z,100089.92319745886
2023-04-12T09:18:41.146Z,100074.95064907556
2023-04-12T09:21:51.710Z,100074.54167706691
2023-04-12T09:24:49.280Z,100074.71090316791
2023-04-12T09:27:48.154Z,100079.3404845094
2023-04-12T09:30:44.344Z,100068.269805855
2023-04-12T09:33:43.939Z,100064.03992420378
2023-04-12T09:36:44.485Z,100055.1088693839
2023-04-12T09:39:41.054Z,100041.8999362088
2023-04-12T09:42:43.587Z,100047.13687928619
2023-04-12T09:45:45.157Z,100043.06962009921
2023-04-12T09:48:49.711Z,100045.85139446368
2023-04-12T09:51:51.201Z,100046.11452682606
2023-04-12T09:54:47.756Z,100035.80661384994
2023-04-12T09:57:45.357Z,100032.937603011
2023-04-12T10:00:44.891Z,100043.66098969692
2023-04-12T10:03:40.591Z,100041.05960340014
2023-04-12T10:06:36.983Z,100045.22255553062
2023-04-12T10:09:38.547Z,100042.78648060423
2023-04-12T10:12:36.097Z,100042.28766528363
2023-04-12T10:15:34.680Z,100038.79936273416
2023-04-12T10:18:31.214Z,100026.27559345696
2023-04-12T10:21:26.734Z,100026.30422325112
2023-04-12T10:24:23.336Z,100033.4981819409
2023-04-12T10:27:24.832Z,100022.05392826736
2023-04-12T10:30:22.486Z,100019.96375599162
2023-04-12T10:33:19.089Z,100020.37757731252
2023-04-12T10:36:27.534Z,100015.09212678089
2023-04-12T10:39:36.019Z,100038.21113322719
2023-04-12T10:42:41.610Z,100022.08976389098
2023-04-12T10:45:42.134Z,100016.57610463824
2023-04-12T10:48:38.677Z,100016.00588734844
2023-04-12T10:51:55.194Z,100007.91958885736
2023-04-12T10:55:08.741Z,100004.8644702627
2023-04-12T10:58:20.294Z,100004.657706607
2023-04-12T11:01:27.918Z,99998.01426333058
2023-04-12T11:04:29.380Z,100000.49166776957
2023-04-12T11:07:32.876Z,100004.34073449457
2023-04-12T11:10:29.389Z,99993.19716500239
2023-04-12T11:13:28.028Z,100003.83850970792
2023-04-12T11:16:25.569Z,100005.25625727524
2023-04-12T11:19:23.073Z,99997.00187229172
2023-04-12T11:22:20.660Z,100000.02656581343
2023-04-12T11:25:18.194Z,100012.96971930037
2023-04-12T11:28:27.830Z,100002.71035650258
2023-04-12T11:31:22.359Z,99987.50636255911
2023-04-12T11:34:18.856Z,99985.72662505289
2023-04-12T11:37:14.384Z,99984.27869403393
2023-04-12T11:40:12.074Z,99988.61867961466
2023-04-12T11:43:07.474Z,99983.25388345016
2023-04-12T11:46:04.179Z,99982.14220554146
2023-04-12T11:49:00.657Z,99979.90034845169
2023-04-12T11:52:03.179Z,99984.47112780908
2023-04-12T11:55:00.714Z,99981.3021215379
2023-04-12T11:58:00.309Z,99978.62022292697
2023-04-12T12:00:57.825Z,99982.65284838223
2023-04-12T12:03:54.979Z,99988.72757422297
2023-04-12T12:06:51.354Z,99969.49654511399
2023-04-12T12:09:46.530Z,99970.1138017693
2023-04-12T12:12:45.116Z,99957.22706077981
2023-04-12T12:15:44.674Z,99957.52956841081
2023-04-12T12:18:41.182Z,99957.33016564288
2023-04-12T12:21:39.762Z,99959.18573050735
2023-04-12T12:24:39.800Z,99953.07116872775
2023-04-12T12:30:44.398Z,99940.96708816609
2023-04-12T12:33:46.338Z,99946.10974238014
2023-04-12T12:36:41.497Z,99953.35040140511
2023-04-12T12:39:40.107Z,99956.87551131003
2023-04-12T12:42:42.628Z,99942.48029460562
2023-04-12T12:45:40.149Z,99942.7249192509
2023-04-12T12:48:38.782Z,99936.42243445056
2023-04-12T12:51:34.228Z,99935.99829620728
2023-04-12T12:54:40.082Z,99932.72161851887
2023-04-12T12:57:31.375Z,99920.62755224797
2023-04-12T13:00:27.966Z,99918.94228464179
2023-04-12T13:03:23.710Z,99917.6952907364
2023-04-12T13:06:19.028Z,99903.14742031427
2023-04-12T13:09:14.576Z,99903.95831288851
2023-04-12T13:12:11.238Z,99898.12578921368
2023-04-12T13:21:14.786Z,99888.66184231774
2023-04-12T13:24:11.404Z,99880.62243106726
2023-04-12T13:27:18.111Z,99886.49222312444
2023-04-12T13:30:13.475Z,99884.99845892437
2023-04-12T13:33:09.153Z,99883.44264559832
2023-04-12T13:36:05.604Z,99881.48469702613
2023-04-12T13:39:01.146Z,99880.6213247902
2023-04-12T13:41:57.703Z,99878.24689197885
2023-04-12T13:44:53.249Z,99877.01459951981
2023-04-12T13:47:49.932Z,99879.76383345605
2023-04-12T13:50:45.889Z,99883.07973207702
2023-04-12T13:53:41.948Z,99888.91240598196
2023-04-12T13:56:37.521Z,99882.84540362036
2023-04-12T13:59:34.096Z,99876.51649968151
2023-04-12T14:02:31.326Z,99882.71153966921
2023-04-12T14:05:28.216Z,99886.1253953774
2023-04-12T14:08:23.746Z,99877.72236097504
2023-04-12T14:11:23.300Z,99892.36743842147
2023-04-12T14:14:18.885Z,99875.55399899832
2023-04-12T14:17:14.416Z,99880.73408011704
2023-04-12T14:20:09.996Z,99888.19934382259
2023-04-12T14:23:07.357Z,99882.1412388233
2023-04-12T14:26:03.100Z,99877.78436808022
2023-04-12T14:29:02.680Z,99880.87445255507
2023-04-12T14:31:58.193Z,99885.81421528688
2023-04-12T14:34:53.775Z,99891.92916625818
2023-04-12T14:37:49.343Z,99887.1203160774
2023-04-12T14:40:44.923Z,99882.56415653924
2023-04-12T14:43:40.462Z,99884.50159785304
2023-04-12T14:46:36.043Z,99888.01963774765
2023-04-12T14:49:33.445Z,99889.59722596027
2023-04-12T14:52:29.124Z,99886.98354564088
2023-04-12T14:55:25.697Z,99884.15735791218
2023-04-12T14:58:21.224Z,99894.56831236268
2023-04-12T15:01:17.847Z,99892.39922590133
2023-04-12T15:04:13.550Z,99893.81795270031
2023-04-12T15:07:13.935Z,99898.40530921669
2023-04-12T15:10:13.513Z,99891.78045750567
2023-04-12T15:13:08.993Z,99891.55203185657
2023-04-12T15:16:05.715Z,99888.2322862514
2023-04-12T15:19:06.923Z,99891.45479514451
2023-04-12T15:22:03.763Z,99885.20368811127
2023-04-12T15:25:02.284Z,99884.3538483252
2023-04-12T15:27:57.826Z,99886.18115262242
2023-04-12T15:30:56.389Z,99882.1686691709
2023-04-12T15:33:51.963Z,99882.23956976524
2023-04-12T15:36:49.602Z,99887.50744884429
2023-04-12T15:39:46.073Z,99877.81831289844
2023-04-12T15:42:43.624Z,99877.18637255934
2023-04-12T15:45:44.204Z,99874.86074763685
2023-04-12T15:48:39.725Z,99878.67441139914
2023-04-12T15:51:35.271Z,99870.76924707858
2023-04-12T15:54:31.842Z,99872.63206909125
2023-04-12T15:57:27.421Z,99875.68358164477
2023-04-12T16:00:26.035Z,99872.07220048667
2023-04-12T16:03:27.006Z,99875.49197326557
2023-04-12T16:06:25.092Z,99877.11247481326
2023-04-12T16:09:22.615Z,99871.75063086167
2023-04-12T16:12:20.198Z,99866.4765703646
2023-04-12T16:15:16.723Z,99866.928910605
2023-04-12T16:18:12.351Z,99869.19646718357
2023-04-12T16:21:09.842Z,99863.4546633661
2023-04-12T16:24:06.423Z,99868.76698105312
2023-04-12T16:27:02.006Z,99858.13158141432
2023-04-12T16:29:59.534Z,99860.99128867505
2023-04-12T16:32:55.125Z,99863.21158024744
2023-04-12T16:35:56.647Z,99856.36915975175
2023-04-12T16:38:55.564Z,99855.07121841196
2023-04-12T16:41:51.762Z,99860.00334611001
2023-04-12T16:44:48.273Z,99853.86530402405
2023-04-12T16:47:45.950Z,99851.64514263115
2023-04-12T16:50:47.469Z,99860.30005838751
2023-04-12T16:53:44.992Z,99858.40704457193
2023-04-12T16:56:41.545Z,99855.2887084738
2023-04-12T16:59:42.103Z,99852.66839809096
2023-04-12T17:02:40.830Z,99860.73892972025
2023-04-12T17:05:38.187Z,99869.05640341472
2023-04-12T17:08:37.726Z,99868.0741300159
2023-04-12T17:11:36.290Z,99865.79276266212
2023-04-12T17:14:32.883Z,99868.48529069025
2023-04-12T17:17:29.413Z,99865.30843588972
2023-04-12T17:20:26.954Z,99865.04858518956
2023-04-12T17:23:24.523Z,99869.17485068276
2023-04-12T17:26:25.091Z,99867.75560976757
2023-04-12T17:32:29.286Z,99869.72805174696
2023-04-12T17:35:27.721Z,99877.88567836152
2023-04-12T17:38:23.282Z,99871.33916831092
2023-04-12T17:41:23.807Z,99870.51730461663
2023-04-12T17:44:19.389Z,99871.04610931773
2023-04-12T17:47:15.939Z,99869.50795610987
2023-04-12T17:50:12.550Z,99869.97520948503
2023-04-12T17:53:08.061Z,99870.79161756283
2023-04-12T17:56:05.669Z,99867.36272248447
2023-04-12T17:59:02.201Z,99858.3539411148
2023-04-12T18:01:59.857Z,99860.072300295
2023-04-12T18:04:55.313Z,99856.1821789235
2023-04-12T18:07:50.863Z,99859.39413882859
2023-04-12T18:10:48.376Z,99857.61514820548
2023-04-12T18:13:43.995Z,99853.4555098366
2023-04-12T18:16:40.550Z,99856.47701813522
2023-04-12T18:19:37.080Z,99860.70943958583
2023-04-12T18:22:32.665Z,99857.52939724924
2023-04-12T18:25:28.197Z,99857.84106285378
2023-04-12T18:28:24.806Z,99859.4416645418
2023-04-12T18:31:22.414Z,99865.67527589404
2023-04-12T18:34:18.886Z,99855.30998840502
2023-04-12T18:37:15.453Z,99862.81423445308
2023-04-12T18:40:13.041Z,99859.01875425628
2023-04-12T18:43:08.593Z,99858.40857562087
2023-04-12T18:46:05.206Z,99856.2039317048
2023-04-12T18:49:03.671Z,99858.6752795437
2023-04-12T18:51:59.254Z,99855.7895911415
2023-04-12T18:54:54.800Z,99854.63105491936
2023-04-12T18:57:50.342Z,99856.18913044927
2023-04-12T19:00:46.008Z,99859.16893839098
2023-04-12T19:03:42.540Z,99865.3912149274
2023-04-12T19:06:38.261Z,99864.1397733782
2023-04-12T19:09:35.613Z,99868.58454203552
2023-04-12T19:12:32.188Z,99862.25119401596
2023-04-12T19:15:28.736Z,99872.91259320195
2023-04-12T19:18:26.336Z,99867.18112342458
2023-04-12T19:21:21.845Z,99874.82858363973
2023-04-12T19:24:17.443Z,99863.89576773779
2023-04-12T19:27:17.916Z,99879.69239167671
2023-04-12T19:30:14.503Z,99877.65978507415
2023-04-12T19:33:11.048Z,99880.36198829337
2023-04-12T19:36:08.653Z,99880.53831096494
2023-04-12T19:39:05.146Z,99879.43226810305
2023-04-12T19:42:02.770Z,99879.55640768394
2023-04-12T19:45:00.310Z,99873.9816453181
2023-04-12T19:47:56.906Z,99873.33596500929
2023-04-12T19:50:54.424Z,99867.92966248476
2023-04-12T19:53:53.966Z,99871.29644575226
2023-04-12T19:56:49.536Z,99868.31504878825
2023-04-12T19:59:46.106Z,99864.65586696223
2023-04-12T20:02:42.665Z,99869.34821515433
2023-04-12T20:05:42.188Z,99869.9433804262
2023-04-12T20:08:38.769Z,99864.42118536893
2023-04-12T20:11:35.366Z,99866.89940343317
2023-04-12T20:14:34.854Z,99861.34831378535
2023-04-12T20:17:31.490Z,99867.85537418677
2023-04-12T20:20:26.994Z,99870.29272490037
2023-04-12T20:23:24.545Z,99871.54778584876
2023-04-12T20:26:21.122Z,99869.0968100248
2023-04-12T20:29:17.690Z,99873.79293260402
2023-04-12T20:32:14.249Z,99871.64401357633
2023-04-12T20:35:11.798Z,99876.8570939563
2023-04-12T20:38:07.326Z,99871.64401357633
2023-04-12T20:41:04.911Z,99863.6003573722
2023-04-12T20:44:01.542Z,99856.4896906162
2023-04-12T20:46:59.070Z,99854.54521006237
2023-04-12T20:49:59.560Z,99845.92657092505
2023-04-12T20:52:56.140Z,99846.58658947452
2023-04-12T20:55:54.696Z,99845.93000146015
2023-04-12T20:58:52.197Z,99845.1327099003
2023-04-12T21:01:49.010Z,99844.56054135179
2023-04-12T21:04:46.430Z,99846.94689608671
2023-04-12T21:07:42.882Z,99844.34070833247
2023-04-12T21:10:40.449Z,99846.54731325945
2023-04-12T21:13:36.001Z,99835.8416544336
2023-04-12T21:16:33.639Z,99833.81306103746
2023-04-12T21:19:30.150Z,99829.656650473
2023-04-12T21:22:26.749Z,99838.49306689449
2023-04-12T21:25:22.264Z,99844.90357243328
2023-04-12T21:28:20.811Z,99844.2846093688
2023-04-12T21:31:18.386Z,99839.34471052805
2023-04-12T21:34:13.931Z,99835.06075198238
2023-04-12T21:37:10.469Z,99835.14627668647
2023-04-12T21:40:09.067Z,99840.78622275434
2023-04-12T21:43:07.578Z,99846.07516215043
2023-04-12T21:46:03.180Z,99843.89695183812
2023-04-12T21:48:59.974Z,99844.08801758851
2023-04-12T21:51:59.321Z,99839.36972630023
2023-04-12T21:54:55.876Z,99834.32849704768
2023-04-12T21:57:52.379Z,99840.55439134817
2023-04-12T22:00:49.983Z,99839.94399366286
2023-04-12T22:03:46.609Z,99842.06586669947
2023-04-12T22:06:44.057Z,99837.61603640877
2023-04-12T22:09:39.619Z,99831.52660746878
2023-04-12T22:12:40.172Z,99823.57502897938
2023-04-12T22:15:36.728Z,99829.48495219104
2023-04-12T22:18:34.293Z,99826.63213712613
2023-04-12T22:21:32.854Z,99826.4375556079
2023-04-12T22:24:30.387Z,99828.21393115542
2023-04-12T22:27:29.933Z,99822.29360008724
2023-04-12T22:30:25.501Z,99824.69478787588
2023-04-12T22:33:22.061Z,99817.97605740062
2023-04-12T22:36:18.626Z,99814.67094987715
2023-04-12T22:39:15.188Z,99814.29665783432
2023-04-12T22:42:20.742Z,99819.10346680462
2023-04-12T22:45:17.284Z,99814.70368044532
2023-04-12T22:48:14.833Z,99809.62842996161
2023-04-12T22:51:10.367Z,99811.05674270265
2023-04-12T22:54:08.947Z,99810.06439980747
2023-04-12T22:57:05.503Z,99808.48508018363
2023-04-12T23:00:01.064Z,99808.55403834523
2023-04-12T23:02:56.658Z,99811.16481380317
2023-04-12T23:05:55.200Z,99809.73624531606
2023-04-12T23:08:51.741Z,99810.41783169446
2023-04-12T23:11:48.303Z,99796.7949404565
2023-04-12T23:14:45.867Z,99797.80379692992
2023-04-12T23:17:42.488Z,99803.83709751806
2023-04-12T23:20:44.971Z,99796.69907515589
2023-04-12T23:23:42.505Z,99794.44244611618
2023-04-12T23:26:38.036Z,99785.12660368378
2023-04-12T23:29:34.642Z,99777.16534434458
2023-04-12T23:32:31.261Z,99781.02661881132
2023-04-12T23:35:26.735Z,99780.03098545958
2023-04-12T23:38:31.285Z,99778.4657979881
2023-04-12T23:41:27.882Z,99780.8528129855
2023-04-12T23:44:27.393Z,99775.00521344547
2023-04-12T23:47:23.948Z,99778.54120919251
2023-04-12T23:50:20.539Z,99768.67202406883
2023-04-12T23:53:17.039Z,99763.76171344433
2023-04-12T23:56:13.633Z,99760.46152437439
2023-04-12T23:59:09.225Z,99755.67739892229
